createdAt,value
2018-07-31T00:00:23.417Z,18.60
2018-07-31T00:02:51.808Z,18.60
2018-07-31T00:05:20.214Z,18.60
2018-07-31T00:07:48.619Z,18.60
2018-07-31T00:10:17.024Z,18.60
2018-07-31T00:12:45.631Z,18.60
2018-07-31T00:15:14.052Z,18.60
2018-07-31T00:17:42.449Z,18.60
2018-07-31T00:20:11.066Z,18.60
2018-07-31T00:22:39.469Z,18.50
2018-07-31T00:25:07.871Z,18.50
2018-07-31T00:27:36.269Z,18.50
2018-07-31T00:30:07.201Z,18.50
2018-07-31T00:32:35.611Z,18.50
2018-07-31T00:35:04.170Z,18.50
2018-07-31T00:37:33.008Z,18.50
2018-07-31T00:40:01.406Z,18.40
2018-07-31T00:42:30.525Z,18.40
2018-07-31T00:44:58.960Z,18.40
2018-07-31T00:47:27.442Z,18.50
2018-07-31T00:49:55.839Z,18.50
2018-07-31T00:52:24.241Z,18.60
2018-07-31T00:54:53.570Z,18.60
2018-07-31T00:57:21.979Z,18.60
2018-07-31T00:59:50.524Z,18.50
2018-07-31T01:02:19.373Z,18.40
2018-07-31T01:04:47.779Z,18.40
2018-07-31T01:07:16.167Z,18.40
2018-07-31T01:09:44.557Z,18.40
2018-07-31T01:12:12.970Z,18.40
2018-07-31T01:14:41.359Z,18.40
2018-07-31T01:17:09.780Z,18.50
2018-07-31T01:19:38.193Z,18.50
2018-07-31T01:22:06.705Z,18.50
2018-07-31T01:24:35.094Z,18.50
2018-07-31T01:27:03.505Z,18.60
2018-07-31T01:29:31.913Z,18.50
2018-07-31T01:32:00.302Z,18.50
2018-07-31T01:34:28.715Z,18.50
2018-07-31T01:36:57.113Z,18.60
2018-07-31T01:39:25.506Z,18.50
2018-07-31T01:41:53.905Z,18.50
2018-07-31T01:44:22.319Z,18.50
2018-07-31T01:46:50.735Z,18.50
2018-07-31T01:49:19.138Z,18.50
2018-07-31T01:51:47.529Z,18.50
2018-07-31T01:54:16.078Z,18.50
2018-07-31T01:56:44.469Z,18.50
2018-07-31T01:59:12.884Z,18.60
2018-07-31T02:01:41.285Z,18.60
2018-07-31T02:04:09.873Z,18.60
2018-07-31T02:06:38.263Z,18.60
2018-07-31T02:09:08.319Z,18.50
2018-07-31T02:11:36.709Z,18.40
2018-07-31T02:14:05.105Z,18.40
2018-07-31T02:16:33.956Z,18.30
2018-07-31T02:19:02.820Z,18.30
2018-07-31T02:21:31.942Z,18.30
2018-07-31T02:24:00.529Z,18.20
2018-07-31T02:26:28.925Z,18.20
2018-07-31T02:28:57.756Z,18.20
2018-07-31T02:31:26.147Z,18.20
2018-07-31T02:33:54.506Z,18.10
2018-07-31T02:36:23.205Z,18.10
2018-07-31T02:38:51.610Z,18.00
2018-07-31T02:41:20.010Z,18.00
2018-07-31T02:43:48.780Z,18.00
2018-07-31T02:46:17.637Z,17.90
2018-07-31T02:48:46.706Z,17.80
2018-07-31T02:51:15.124Z,17.80
2018-07-31T02:53:43.518Z,17.90
2018-07-31T02:56:11.918Z,17.90
2018-07-31T02:58:40.305Z,18.00
2018-07-31T03:01:08.692Z,18.00
2018-07-31T03:03:37.095Z,18.00
2018-07-31T03:06:05.631Z,18.00
2018-07-31T03:08:34.026Z,18.10
2018-07-31T03:11:02.443Z,18.00
2018-07-31T03:13:30.851Z,18.00
2018-07-31T03:15:59.417Z,18.00
2018-07-31T03:18:27.833Z,18.10
2018-07-31T03:20:56.257Z,18.00
2018-07-31T03:23:25.012Z,18.00
2018-07-31T03:25:53.863Z,18.00
2018-07-31T03:28:22.334Z,18.00
2018-07-31T03:30:50.721Z,18.00
2018-07-31T03:33:19.119Z,17.90
2018-07-31T03:35:47.785Z,17.90
2018-07-31T03:38:16.174Z,17.90
2018-07-31T03:40:44.572Z,18.00
2018-07-31T03:43:12.967Z,18.00
2018-07-31T03:45:41.377Z,18.10
2018-07-31T03:48:10.213Z,18.10
2018-07-31T03:50:38.619Z,18.10
2018-07-31T03:53:07.289Z,18.10
2018-07-31T03:55:35.889Z,18.10
2018-07-31T03:58:04.303Z,18.20
2018-07-31T04:00:32.697Z,18.20
2018-07-31T04:03:01.098Z,18.20
2018-07-31T04:05:29.538Z,18.20
2018-07-31T04:07:57.907Z,18.20
2018-07-31T04:10:26.321Z,18.20
2018-07-31T04:12:54.711Z,18.20
2018-07-31T04:15:23.139Z,18.30
2018-07-31T04:17:55.174Z,18.30
2018-07-31T04:20:23.558Z,18.30
2018-07-31T04:22:53.168Z,18.20
2018-07-31T04:25:22.050Z,18.30
2018-07-31T04:27:50.456Z,18.20
2018-07-31T04:30:18.842Z,18.30
2018-07-31T04:32:47.602Z,18.20
2018-07-31T04:35:16.059Z,18.20
2018-07-31T04:37:44.462Z,18.20
2018-07-31T04:40:12.858Z,18.30
2018-07-31T04:42:41.336Z,18.40
2018-07-31T04:45:11.555Z,18.50
2018-07-31T04:47:41.045Z,18.70
2018-07-31T04:50:10.321Z,18.90
2018-07-31T04:52:39.513Z,19.00
2018-07-31T04:55:07.936Z,19.20
2018-07-31T04:57:36.480Z,19.40
2018-07-31T05:00:07.891Z,19.50
2018-07-31T05:02:37.583Z,19.70
2018-07-31T05:05:06.429Z,19.90
2018-07-31T05:07:38.966Z,19.90
2018-07-31T05:10:11.100Z,20.00
2018-07-31T05:12:40.210Z,20.10
2018-07-31T05:15:08.600Z,20.10
2018-07-31T05:17:38.633Z,20.20
2018-07-31T05:20:08.728Z,20.20
2018-07-31T05:22:37.710Z,20.30
2018-07-31T05:26:35.847Z,20.30
2018-07-31T05:29:04.241Z,20.30
2018-07-31T05:31:32.647Z,20.30
2018-07-31T05:34:01.615Z,20.40
2018-07-31T05:36:30.015Z,20.40
2018-07-31T05:38:58.407Z,20.50
2018-07-31T05:41:26.802Z,20.50
2018-07-31T05:43:55.217Z,20.50
2018-07-31T05:46:23.625Z,20.40
2018-07-31T05:48:52.036Z,20.40
2018-07-31T05:51:20.436Z,20.60
2018-07-31T05:53:49.101Z,20.60
2018-07-31T05:56:17.508Z,20.60
2018-07-31T05:58:45.982Z,20.60
2018-07-31T06:01:14.416Z,20.60
2018-07-31T06:03:42.826Z,20.60
2018-07-31T06:06:11.230Z,20.50
2018-07-31T06:08:39.638Z,20.50
2018-07-31T06:11:08.038Z,20.50
2018-07-31T06:13:36.434Z,20.50
2018-07-31T06:16:05.287Z,20.50
2018-07-31T06:18:33.696Z,20.60
2018-07-31T06:21:02.109Z,20.60
2018-07-31T06:23:30.876Z,20.70
2018-07-31T06:25:59.287Z,20.80
2018-07-31T06:28:27.689Z,20.80
2018-07-31T06:30:56.100Z,20.80
2018-07-31T06:33:24.535Z,20.90
2018-07-31T06:35:54.134Z,21.00
2018-07-31T06:38:22.537Z,21.00
2018-07-31T06:40:50.932Z,21.10
2018-07-31T06:43:19.318Z,21.00
2018-07-31T06:45:47.717Z,21.10
2018-07-31T06:48:16.117Z,21.10
2018-07-31T06:50:44.525Z,21.10
2018-07-31T06:53:12.913Z,21.20
2018-07-31T06:55:41.319Z,21.30
2018-07-31T06:58:09.721Z,21.30
2018-07-31T07:00:38.413Z,21.40
2018-07-31T07:03:07.499Z,21.50
2018-07-31T07:05:35.902Z,21.50
2018-07-31T07:08:04.351Z,21.60
2018-07-31T07:10:32.759Z,21.70
2018-07-31T07:13:01.155Z,21.70
2018-07-31T07:15:29.584Z,21.80
2018-07-31T07:17:57.962Z,21.80
2018-07-31T07:20:26.358Z,21.80
2018-07-31T07:22:54.786Z,21.90
2018-07-31T07:25:23.202Z,21.90
2018-07-31T07:27:51.781Z,22.00
2018-07-31T07:30:20.177Z,22.10
2018-07-31T07:32:48.578Z,22.20
2018-07-31T07:37:45.396Z,22.20
2018-07-31T07:40:13.839Z,22.30
2018-07-31T07:42:42.315Z,22.30
2018-07-31T07:45:10.922Z,22.30
2018-07-31T07:47:39.350Z,22.30
2018-07-31T07:50:07.862Z,22.30
2018-07-31T07:52:36.426Z,22.30
2018-07-31T07:55:04.871Z,22.30
2018-07-31T07:57:33.269Z,22.40
2018-07-31T08:00:01.695Z,22.40
2018-07-31T08:02:30.098Z,22.60
2018-07-31T08:04:58.515Z,22.60
2018-07-31T08:07:26.938Z,22.70
2018-07-31T08:09:55.349Z,22.60
2018-07-31T08:12:23.747Z,22.60
2018-07-31T08:14:52.183Z,22.60
2018-07-31T08:17:20.585Z,22.70
2018-07-31T08:19:49.025Z,22.70
2018-07-31T08:22:17.418Z,22.90
2018-07-31T08:24:46.326Z,23.10
2018-07-31T08:27:14.754Z,23.00
2018-07-31T08:29:43.154Z,22.80
2018-07-31T08:32:11.567Z,22.70
2018-07-31T08:34:39.953Z,22.60
2018-07-31T08:37:08.346Z,22.60
2018-07-31T08:39:36.750Z,22.70
2018-07-31T08:42:05.161Z,22.70
2018-07-31T08:44:33.865Z,22.90
2018-07-31T08:47:02.281Z,23.10
2018-07-31T08:49:30.713Z,23.20
2018-07-31T08:51:59.228Z,23.10
2018-07-31T08:54:27.625Z,23.00
2018-07-31T08:56:56.082Z,22.90
2018-07-31T08:59:24.492Z,22.70
2018-07-31T09:01:52.899Z,22.70
2018-07-31T09:04:21.310Z,22.80
2018-07-31T09:06:50.101Z,23.00
2018-07-31T09:09:18.497Z,23.30
2018-07-31T09:11:46.892Z,23.60
2018-07-31T09:14:15.285Z,23.80
2018-07-31T09:16:43.694Z,24.00
2018-07-31T09:19:12.105Z,24.00
2018-07-31T09:21:40.516Z,24.00
2018-07-31T09:24:08.959Z,23.90
2018-07-31T09:26:37.354Z,23.80
2018-07-31T09:29:05.755Z,23.50
2018-07-31T09:31:34.155Z,23.50
2018-07-31T09:34:02.554Z,23.60
2018-07-31T09:36:31.009Z,23.80
2018-07-31T09:38:59.369Z,23.90
2018-07-31T09:41:27.783Z,24.10
2018-07-31T09:43:56.172Z,24.20
2018-07-31T09:46:24.572Z,24.20
2018-07-31T09:48:53.014Z,24.20
2018-07-31T09:51:21.424Z,24.20
2018-07-31T09:53:49.814Z,24.40
2018-07-31T09:56:18.214Z,24.40
2018-07-31T09:58:46.616Z,24.30
2018-07-31T10:01:20.806Z,24.20
2018-07-31T10:03:50.349Z,24.00
2018-07-31T10:06:18.771Z,23.90
2018-07-31T10:08:48.326Z,24.00
2018-07-31T10:11:16.734Z,24.00
2018-07-31T10:13:45.611Z,24.10
2018-07-31T10:16:14.145Z,24.10
2018-07-31T10:18:43.518Z,24.20
2018-07-31T10:21:12.712Z,24.20
2018-07-31T10:23:41.645Z,24.40
2018-07-31T10:26:10.381Z,24.50
2018-07-31T10:28:39.113Z,24.50
2018-07-31T10:31:08.929Z,24.40
2018-07-31T10:33:39.289Z,24.50
2018-07-31T10:36:08.221Z,24.60
2018-07-31T10:38:36.851Z,24.70
2018-07-31T10:41:05.350Z,24.80
2018-07-31T10:43:33.814Z,24.90
2018-07-31T10:46:02.191Z,24.80
2018-07-31T10:48:30.693Z,24.60
2018-07-31T10:50:59.132Z,24.50
2018-07-31T10:53:27.529Z,24.50
2018-07-31T10:55:55.925Z,24.60
2018-07-31T10:58:24.376Z,24.50
2018-07-31T11:00:52.757Z,24.30
2018-07-31T11:03:21.230Z,24.30
2018-07-31T11:05:49.664Z,24.40
2018-07-31T11:08:18.068Z,24.70
2018-07-31T11:10:46.475Z,25.00
2018-07-31T11:13:15.434Z,25.10
2018-07-31T11:15:44.006Z,25.30
2018-07-31T11:18:12.393Z,25.40
2018-07-31T11:20:41.302Z,25.30
2018-07-31T11:23:09.728Z,25.10
2018-07-31T11:25:39.006Z,25.00
2018-07-31T11:28:07.398Z,25.00
2018-07-31T11:30:35.791Z,25.10
2018-07-31T11:33:04.222Z,25.40
2018-07-31T11:35:32.673Z,25.40
2018-07-31T11:38:01.225Z,25.20
2018-07-31T11:40:29.795Z,25.00
2018-07-31T11:42:58.233Z,24.90
2018-07-31T11:45:26.642Z,25.00
2018-07-31T11:47:55.080Z,25.20
2018-07-31T11:50:23.499Z,25.50
2018-07-31T11:52:51.913Z,25.60
2018-07-31T11:55:20.576Z,25.70
2018-07-31T11:57:48.999Z,25.60
2018-07-31T12:00:17.425Z,25.60
2018-07-31T12:02:45.851Z,25.70
2018-07-31T12:05:14.259Z,25.90
2018-07-31T12:07:43.060Z,26.10
2018-07-31T12:10:11.563Z,26.30
2018-07-31T12:12:39.976Z,26.50
2018-07-31T12:15:08.413Z,26.50
2018-07-31T12:17:36.838Z,26.30
2018-07-31T12:20:06.268Z,26.10
2018-07-31T12:22:34.693Z,26.00
2018-07-31T12:25:03.429Z,25.90
2018-07-31T12:27:31.959Z,25.90
2018-07-31T12:30:00.602Z,26.20
2018-07-31T12:32:29.074Z,26.40
2018-07-31T12:34:57.469Z,26.50
2018-07-31T12:37:26.019Z,26.30
2018-07-31T12:39:54.415Z,26.00
2018-07-31T12:42:22.811Z,25.90
2018-07-31T12:44:51.197Z,25.80
2018-07-31T12:47:19.591Z,25.70
2018-07-31T12:49:48.006Z,25.80
2018-07-31T12:52:16.412Z,25.80
2018-07-31T12:54:44.819Z,25.90
2018-07-31T12:57:13.242Z,26.00
2018-07-31T12:59:41.736Z,26.00
2018-07-31T13:02:10.180Z,26.00
2018-07-31T13:04:38.595Z,25.80
2018-07-31T13:07:07.444Z,25.70
2018-07-31T13:09:35.845Z,26.00
2018-07-31T13:12:05.239Z,26.10
2018-07-31T13:14:33.630Z,26.00
2018-07-31T13:17:02.065Z,25.90
2018-07-31T13:19:30.482Z,26.20
2018-07-31T13:21:58.885Z,26.20
2018-07-31T13:24:27.278Z,26.00
2018-07-31T13:26:55.812Z,25.90
2018-07-31T13:29:24.825Z,25.80
2018-07-31T13:31:53.652Z,25.70
2018-07-31T13:34:22.062Z,26.00
2018-07-31T13:36:50.466Z,26.20
2018-07-31T13:39:18.886Z,26.20
2018-07-31T13:41:47.715Z,26.00
2018-07-31T13:44:16.167Z,25.80
2018-07-31T13:46:44.646Z,25.70
2018-07-31T13:49:13.110Z,25.70
2018-07-31T13:51:41.863Z,25.90
2018-07-31T13:54:10.280Z,26.10
2018-07-31T13:56:38.741Z,26.40
2018-07-31T13:59:07.472Z,26.80
2018-07-31T14:01:35.945Z,27.00
2018-07-31T14:04:04.405Z,26.70
2018-07-31T14:06:32.843Z,26.50
2018-07-31T14:09:01.241Z,26.50
2018-07-31T14:11:29.638Z,26.60
2018-07-31T14:13:58.359Z,26.70
2018-07-31T14:16:26.780Z,27.00
2018-07-31T14:18:55.675Z,27.10
2018-07-31T14:21:24.152Z,27.30
2018-07-31T14:23:52.559Z,27.50
2018-07-31T14:26:20.960Z,27.70
2018-07-31T14:28:49.706Z,27.70
2018-07-31T14:31:18.227Z,27.50
2018-07-31T14:33:46.611Z,27.20
2018-07-31T14:36:15.026Z,27.10
2018-07-31T14:38:43.436Z,27.30
2018-07-31T14:41:11.831Z,27.80
2018-07-31T14:43:40.734Z,28.20
2018-07-31T14:46:09.174Z,28.40
2018-07-31T14:48:37.601Z,28.50
2018-07-31T14:51:06.058Z,28.40
2018-07-31T14:53:34.455Z,27.90
2018-07-31T14:56:02.860Z,27.50
2018-07-31T14:58:31.316Z,27.20
2018-07-31T15:00:59.712Z,27.00
2018-07-31T15:05:56.277Z,26.60
2018-07-31T15:08:24.666Z,26.40
2018-07-31T15:10:53.102Z,26.60
2018-07-31T15:13:21.505Z,26.70
2018-07-31T15:15:49.924Z,26.60
2018-07-31T15:18:18.314Z,26.70
2018-07-31T15:20:46.759Z,27.20
2018-07-31T15:23:15.158Z,27.60
2018-07-31T15:25:43.563Z,27.80
2018-07-31T15:28:11.984Z,27.90
2018-07-31T15:30:40.397Z,28.00
2018-07-31T15:33:08.795Z,28.30
2018-07-31T15:35:37.225Z,28.60
2018-07-31T15:38:05.810Z,28.90
2018-07-31T15:40:35.074Z,29.00
2018-07-31T15:43:03.476Z,28.80
2018-07-31T15:45:31.908Z,28.70
2018-07-31T15:48:00.565Z,28.80
2018-07-31T15:50:29.637Z,29.10
2018-07-31T15:52:58.643Z,29.20
2018-07-31T15:55:27.372Z,29.30
2018-07-31T15:57:55.773Z,29.20
2018-07-31T16:00:24.458Z,29.20
2018-07-31T16:02:52.864Z,29.10
2018-07-31T16:05:21.950Z,29.10
2018-07-31T16:07:50.403Z,29.10
2018-07-31T16:10:18.797Z,29.30
2018-07-31T16:12:47.190Z,29.50
2018-07-31T16:15:15.577Z,29.40
2018-07-31T16:17:43.974Z,29.40
2018-07-31T16:20:12.386Z,29.40
2018-07-31T16:22:41.465Z,29.50
2018-07-31T16:25:09.904Z,29.60
2018-07-31T16:27:38.794Z,29.70
2018-07-31T16:30:07.858Z,29.80
2018-07-31T16:32:36.260Z,29.70
2018-07-31T16:35:05.244Z,29.50
2018-07-31T16:37:33.638Z,29.30
2018-07-31T16:40:02.070Z,29.40
2018-07-31T16:42:30.475Z,29.70
2018-07-31T16:44:59.103Z,29.80
2018-07-31T16:47:27.816Z,29.80
2018-07-31T16:49:56.642Z,29.70
2018-07-31T16:52:25.054Z,29.60
2018-07-31T16:54:54.338Z,29.70
2018-07-31T16:57:22.764Z,29.60
2018-07-31T16:59:51.239Z,29.40
2018-07-31T17:02:20.088Z,29.30
2018-07-31T17:04:48.516Z,29.10
2018-07-31T17:07:17.207Z,29.10
2018-07-31T17:09:45.743Z,29.20
2018-07-31T17:12:14.222Z,29.40
2018-07-31T17:14:42.708Z,29.60
2018-07-31T17:17:11.205Z,29.50
2018-07-31T17:19:40.268Z,29.40
2018-07-31T17:22:08.753Z,29.30
2018-07-31T17:24:37.216Z,29.40
2018-07-31T17:27:05.595Z,29.50
2018-07-31T17:29:34.543Z,29.50
2018-07-31T17:32:02.973Z,29.60
2018-07-31T17:34:31.376Z,29.70
2018-07-31T17:36:59.772Z,29.80
2018-07-31T17:39:28.176Z,29.70
2018-07-31T17:41:56.591Z,29.70
2018-07-31T17:44:25.049Z,29.70
2018-07-31T17:46:53.471Z,29.50
2018-07-31T17:49:22.026Z,29.30
2018-07-31T17:51:50.567Z,29.10
2018-07-31T17:54:19.727Z,28.90
2018-07-31T17:56:48.561Z,29.00
2018-07-31T17:59:16.980Z,29.00
2018-07-31T18:01:45.708Z,28.90
2018-07-31T18:04:18.432Z,28.80
2018-07-31T18:06:47.079Z,28.80
2018-07-31T18:09:15.784Z,28.90
2018-07-31T18:11:45.114Z,29.10
2018-07-31T18:14:13.835Z,29.10
2018-07-31T18:16:42.196Z,29.00
2018-07-31T18:19:10.708Z,29.10
2018-07-31T18:21:39.690Z,29.10
2018-07-31T18:24:08.675Z,28.90
2018-07-31T18:26:37.812Z,28.70
2018-07-31T18:29:06.819Z,28.30
2018-07-31T18:31:35.307Z,27.80
2018-07-31T18:34:03.691Z,27.60
2018-07-31T18:36:32.260Z,27.40
2018-07-31T18:39:00.841Z,27.20
2018-07-31T18:41:29.235Z,27.10
2018-07-31T18:43:57.643Z,27.10
2018-07-31T18:46:26.095Z,27.00
2018-07-31T18:48:54.514Z,26.70
2018-07-31T18:51:22.920Z,26.30
2018-07-31T18:53:51.765Z,25.80
2018-07-31T18:56:20.158Z,25.50
2018-07-31T18:58:48.934Z,25.30
2018-07-31T19:01:17.495Z,25.40
2018-07-31T19:03:45.908Z,25.50
2018-07-31T19:06:14.350Z,25.40
2018-07-31T19:08:43.164Z,25.40
2018-07-31T19:11:11.564Z,25.20
2018-07-31T19:13:39.967Z,25.10
2018-07-31T19:16:08.388Z,25.00
2018-07-31T19:18:37.627Z,24.80
2018-07-31T19:21:06.031Z,24.40
2018-07-31T19:23:34.445Z,24.00
2018-07-31T19:26:02.913Z,23.60
2018-07-31T19:28:31.813Z,23.20
2018-07-31T19:31:00.205Z,23.00
2018-07-31T19:33:28.681Z,22.90
2018-07-31T19:38:26.035Z,23.10
2018-07-31T19:43:22.633Z,23.30
2018-07-31T19:45:51.061Z,23.30
2018-07-31T19:48:19.475Z,23.30
2018-07-31T19:50:47.869Z,23.20
2018-07-31T19:53:16.281Z,23.10
2018-07-31T19:55:44.692Z,23.10
2018-07-31T19:58:13.094Z,23.10
2018-07-31T20:00:41.496Z,23.10
2018-07-31T20:03:11.044Z,23.10
2018-07-31T20:05:39.460Z,23.10
2018-07-31T20:08:07.856Z,23.00
2018-07-31T20:10:36.495Z,22.90
2018-07-31T20:13:04.977Z,22.80
2018-07-31T20:15:33.447Z,22.80
2018-07-31T20:18:01.817Z,22.60
2018-07-31T20:20:30.840Z,22.50
2018-07-31T20:22:59.589Z,22.40
2018-07-31T20:25:28.844Z,22.40
2018-07-31T20:27:58.731Z,22.40
2018-07-31T20:30:38.323Z,22.40
2018-07-31T20:33:07.390Z,22.40
2018-07-31T20:35:37.430Z,22.50
2018-07-31T20:38:05.900Z,22.40
2018-07-31T20:40:39.656Z,22.40
2018-07-31T20:43:08.139Z,22.30
2018-07-31T20:45:36.962Z,22.20
2018-07-31T20:48:06.260Z,22.20
2018-07-31T20:50:36.943Z,22.10
2018-07-31T20:53:06.146Z,21.90
2018-07-31T20:58:03.567Z,21.50
2018-07-31T21:00:32.859Z,21.30
2018-07-31T21:03:01.251Z,21.10
2018-07-31T21:05:29.736Z,20.90
2018-07-31T21:07:58.228Z,20.70
2018-07-31T21:10:26.634Z,20.70
2018-07-31T21:12:55.035Z,20.50
2018-07-31T21:15:23.896Z,20.40
2018-07-31T21:17:52.654Z,20.20
2018-07-31T21:20:22.023Z,20.00
2018-07-31T21:22:50.417Z,19.90
2018-07-31T21:25:18.868Z,19.80
2018-07-31T21:27:47.499Z,19.80
2018-07-31T21:30:16.501Z,19.80
2018-07-31T21:32:44.905Z,19.70
2018-07-31T21:35:13.303Z,19.70
2018-07-31T21:37:41.800Z,19.60
2018-07-31T21:40:10.455Z,19.60
2018-07-31T21:42:38.854Z,19.70
2018-07-31T21:45:07.266Z,19.70
2018-07-31T21:47:35.673Z,19.60
2018-07-31T21:50:04.204Z,19.60
2018-07-31T21:52:35.815Z,19.60
2018-07-31T21:55:10.620Z,19.60
2018-07-31T21:57:39.001Z,19.60
2018-07-31T22:00:10.052Z,19.60
2018-07-31T22:02:39.089Z,19.60
2018-07-31T22:05:08.038Z,19.70
2018-07-31T22:07:36.457Z,19.60
2018-07-31T22:10:05.464Z,19.60
2018-07-31T22:12:33.884Z,19.50
2018-07-31T22:15:02.296Z,19.50
2018-07-31T22:17:30.703Z,19.50
2018-07-31T22:19:59.090Z,19.40
2018-07-31T22:22:28.298Z,19.40
2018-07-31T22:24:57.380Z,19.30
2018-07-31T22:27:25.709Z,19.30
2018-07-31T22:29:54.114Z,19.30
2018-07-31T22:32:22.619Z,19.20
2018-07-31T22:34:51.006Z,19.20
2018-07-31T22:37:19.416Z,19.20
2018-07-31T22:39:48.171Z,19.20
2018-07-31T22:42:16.583Z,19.20
2018-07-31T22:44:44.980Z,19.20
2018-07-31T22:47:13.372Z,19.10
2018-07-31T22:49:41.780Z,19.00
2018-07-31T22:52:10.742Z,18.90
2018-07-31T22:54:39.142Z,18.90
2018-07-31T22:57:07.543Z,18.80
2018-07-31T22:59:36.045Z,18.70
2018-07-31T23:02:04.461Z,18.60
2018-07-31T23:04:33.648Z,18.50
2018-07-31T23:07:02.050Z,18.50
2018-07-31T23:09:30.434Z,18.50
2018-07-31T23:11:58.946Z,18.50
2018-07-31T23:14:27.339Z,18.50
2018-07-31T23:16:56.055Z,18.50
2018-07-31T23:19:24.448Z,18.50
2018-07-31T23:21:53.019Z,18.60
2018-07-31T23:24:21.431Z,18.60
2018-07-31T23:26:49.844Z,18.60
2018-07-31T23:29:18.243Z,18.50
2018-07-31T23:31:46.660Z,18.50
2018-07-31T23:34:15.083Z,18.60
2018-07-31T23:36:43.465Z,18.70
2018-07-31T23:39:12.901Z,18.60
2018-07-31T23:41:41.309Z,18.60
2018-07-31T23:44:10.164Z,18.60
2018-07-31T23:46:39.871Z,18.60
2018-07-31T23:49:08.264Z,18.60
2018-07-31T23:51:36.686Z,18.60
2018-07-31T23:54:05.099Z,18.60
2018-07-31T23:56:33.503Z,18.60
2018-07-31T23:59:01.903Z,18.50
